createdAt,value
2016-08-08T00:00:02.048Z,63.2
2016-08-08T00:00:04.292Z,63.1
2016-08-08T00:00:07.998Z,63.1
2016-08-08T00:00:10.319Z,63.1
2016-08-08T00:00:13.293Z,63.1
2016-08-08T00:00:16.999Z,63.2
2016-08-08T00:00:19.982Z,63.1
2016-08-08T00:00:23.689Z,63.2
2016-08-08T00:00:25.937Z,63.2
2016-08-08T00:00:28.921Z,63.1
2016-08-08T00:00:32.625Z,63.2
2016-08-08T00:00:35.600Z,63.1
2016-08-08T00:00:39.301Z,63.3
2016-08-08T00:00:43.010Z,63.3
2016-08-08T00:00:45.254Z,63.1
2016-08-08T00:00:48.960Z,63.1
2016-08-08T00:00:51.941Z,63.1
2016-08-08T00:00:54.993Z,63.1
2016-08-08T00:00:57.969Z,63.3
2016-08-08T00:01:01.675Z,63.1
2016-08-08T00:01:03.920Z,63.3
2016-08-08T00:01:06.894Z,63.3
2016-08-08T00:01:10.598Z,63.2
2016-08-08T00:01:12.843Z,63.3
2016-08-08T00:01:16.552Z,63.2
2016-08-08T00:01:19.525Z,63.2
2016-08-08T00:01:23.232Z,63.3
2016-08-08T00:01:25.479Z,63.3
2016-08-08T00:01:29.184Z,63.3
2016-08-08T00:01:32.894Z,63.3
2016-08-08T00:01:35.143Z,63.1
2016-08-08T00:01:38.848Z,63
2016-08-08T00:01:41.096Z,63.2
2016-08-08T00:01:44.072Z,63
2016-08-08T00:01:47.779Z,63.2
2016-08-08T00:01:51.489Z,63.1
2016-08-08T00:01:55.194Z,63.2
2016-08-08T00:01:58.174Z,63
2016-08-08T00:02:01.148Z,63.2
2016-08-08T00:02:04.122Z,63
2016-08-08T00:02:05.647Z,63.2
2016-08-08T00:02:08.621Z,63.2
2016-08-08T00:02:11.608Z,63.3
2016-08-08T00:02:15.319Z,63.3
2016-08-08T00:02:18.293Z,63
2016-08-08T00:02:22.005Z,63
2016-08-08T00:02:24.248Z,63.3
2016-08-08T00:02:27.229Z,63.3
2016-08-08T00:02:30.933Z,63.1
2016-08-08T00:02:33.907Z,63.1
2016-08-08T00:02:37.613Z,63.3
2016-08-08T00:02:40.588Z,63.3
2016-08-08T00:02:44.294Z,63.1
2016-08-08T00:02:48.002Z,63.2
2016-08-08T00:02:51.709Z,63.2
2016-08-08T00:02:54.687Z,63.2
2016-08-08T00:02:57.662Z,63.3
2016-08-08T00:02:59.912Z,63.1
2016-08-08T00:03:02.888Z,63.1
2016-08-08T00:03:05.865Z,63.2
2016-08-08T00:03:09.571Z,63.3
2016-08-08T00:03:13.276Z,63.2
2016-08-08T00:03:16.987Z,63.3
2016-08-08T00:03:19.967Z,63.2
2016-08-08T00:03:23.674Z,63.1
2016-08-08T00:03:26.655Z,63.2
2016-08-08T00:03:30.357Z,63.1
2016-08-08T00:03:33.335Z,63.2
2016-08-08T00:03:35.579Z,63.2
2016-08-08T00:03:39.287Z,63.3
2016-08-08T00:03:42.261Z,63.3
2016-08-08T00:03:43.782Z,63.3
2016-08-08T00:03:46.029Z,63
2016-08-08T00:03:49.004Z,63.1
2016-08-08T00:03:51.981Z,63.2
2016-08-08T00:03:54.958Z,63.1
2016-08-08T00:03:58.662Z,63.1
2016-08-08T00:04:01.639Z,63.3
2016-08-08T00:04:04.618Z,63
2016-08-08T00:04:07.596Z,63.3
2016-08-08T00:04:10.570Z,63.1
2016-08-08T00:04:13.546Z,63.2
2016-08-08T00:04:15.794Z,63.2
2016-08-08T00:04:17.319Z,63.3
2016-08-08T00:04:20.293Z,63.3
2016-08-08T00:04:24.000Z,63.2
2016-08-08T00:04:26.971Z,63.2
2016-08-08T00:04:29.949Z,63.2
2016-08-08T00:04:33.651Z,63.1
2016-08-08T00:04:37.358Z,63.2
2016-08-08T00:04:40.345Z,63.1
2016-08-08T00:04:44.049Z,63.3
2016-08-08T00:04:46.298Z,63.3
2016-08-08T00:04:49.999Z,63.2
2016-08-08T00:04:52.972Z,63.1
2016-08-08T00:04:56.677Z,63.1
2016-08-08T00:05:00.380Z,63.3
2016-08-08T00:05:03.364Z,63.2
2016-08-08T00:05:05.608Z,63.3
2016-08-08T00:05:07.863Z,63
2016-08-08T00:05:10.835Z,63.2
2016-08-08T00:05:13.811Z,63
2016-08-08T00:05:16.785Z,63
2016-08-08T00:05:19.030Z,63.2
2016-08-08T00:05:21.280Z,63.3
2016-08-08T00:05:24.987Z,63.3
2016-08-08T00:05:27.962Z,63
2016-08-08T00:05:30.940Z,63.3
2016-08-08T00:05:33.911Z,63.1
2016-08-08T00:05:35.430Z,63
2016-08-08T00:05:37.684Z,63.1
2016-08-08T00:05:40.663Z,63.1
2016-08-08T00:05:44.369Z,63.1
2016-08-08T00:05:47.344Z,63
2016-08-08T00:05:49.590Z,63.1
2016-08-08T00:05:52.565Z,63
2016-08-08T00:05:55.552Z,63.1
2016-08-08T00:05:58.523Z,63.1
2016-08-08T00:06:02.237Z,63
2016-08-08T00:06:04.489Z,63.1
2016-08-08T00:06:08.189Z,63.1
2016-08-08T00:06:11.169Z,63.1
2016-08-08T00:06:13.414Z,63.1
2016-08-08T00:06:15.659Z,63.1
2016-08-08T00:06:18.637Z,63.2
2016-08-08T00:06:21.615Z,63.1
2016-08-08T00:06:23.939Z,63.1
2016-08-08T00:06:27.643Z,63.1
2016-08-08T00:06:29.890Z,63.1
2016-08-08T00:06:33.595Z,63.1
2016-08-08T00:06:35.843Z,63.1
2016-08-08T00:06:38.826Z,63.1
2016-08-08T00:06:42.528Z,63.1
2016-08-08T00:06:44.777Z,63.1
2016-08-08T00:06:46.294Z,63.1
2016-08-08T00:06:49.999Z,63
2016-08-08T00:06:53.708Z,63.1
2016-08-08T00:06:56.684Z,63.2
2016-08-08T00:06:58.933Z,63.1
2016-08-08T00:07:02.638Z,63.4
2016-08-08T00:07:06.343Z,63.1
2016-08-08T00:07:10.046Z,62.9
2016-08-08T00:07:13.752Z,63.1
2016-08-08T00:07:16.000Z,63.1
2016-08-08T00:07:18.968Z,63.1
2016-08-08T00:07:21.946Z,63
2016-08-08T00:07:24.192Z,63.1
2016-08-08T00:07:26.442Z,62.9
2016-08-08T00:07:30.159Z,63.1
2016-08-08T00:07:33.855Z,63.1
2016-08-08T00:07:37.564Z,62.9
2016-08-08T00:07:41.268Z,63
2016-08-08T00:07:44.971Z,63.1
2016-08-08T00:07:48.677Z,63.1
2016-08-08T00:07:52.381Z,63
2016-08-08T00:07:56.082Z,62.9
2016-08-08T00:07:58.326Z,63.1
2016-08-08T00:07:59.840Z,63.2
2016-08-08T00:08:01.508Z,63.1
2016-08-08T00:08:03.757Z,63.1
2016-08-08T00:08:07.469Z,63
2016-08-08T00:08:11.179Z,63.1
2016-08-08T00:08:14.882Z,63.1
2016-08-08T00:08:17.859Z,63.1
2016-08-08T00:08:20.103Z,62.9
2016-08-08T00:08:23.091Z,63.2
2016-08-08T00:08:26.799Z,63.1
2016-08-08T00:08:29.777Z,63.2
2016-08-08T00:08:32.758Z,62.9
2016-08-08T00:08:35.735Z,63.2
2016-08-08T00:08:38.712Z,63.1
2016-08-08T00:08:42.414Z,63.1
2016-08-08T00:08:45.391Z,63
2016-08-08T00:08:47.636Z,63.1
2016-08-08T00:08:49.886Z,63.4
2016-08-08T00:08:52.863Z,63.1
2016-08-08T00:08:55.843Z,63.1
2016-08-08T00:08:59.546Z,63.1
2016-08-08T00:09:01.797Z,63.1
2016-08-08T00:09:05.505Z,63.3
2016-08-08T00:09:08.477Z,63.1
2016-08-08T00:09:11.454Z,63.1
2016-08-08T00:09:15.159Z,63.1
2016-08-08T00:09:18.134Z,63.1
2016-08-08T00:09:20.390Z,63.1
2016-08-08T00:09:23.366Z,63.1
2016-08-08T00:09:25.615Z,63
2016-08-08T00:09:28.589Z,63.1
2016-08-08T00:09:30.837Z,63.1
2016-08-08T00:09:34.542Z,63.1
2016-08-08T00:09:36.786Z,63.1
2016-08-08T00:09:40.492Z,63
2016-08-08T00:09:43.467Z,63.3
2016-08-08T00:09:45.715Z,63
2016-08-08T00:09:49.424Z,63.1
2016-08-08T00:09:53.129Z,63
2016-08-08T00:09:56.123Z,63.1
2016-08-08T00:09:59.101Z,63
2016-08-08T00:10:01.351Z,63
2016-08-08T00:10:05.057Z,63.1
2016-08-08T00:10:08.034Z,63
2016-08-08T00:10:11.743Z,63.1
2016-08-08T00:10:14.714Z,63.1
2016-08-08T00:10:17.694Z,63.1
2016-08-08T00:10:20.670Z,63
2016-08-08T00:10:23.648Z,63.1
2016-08-08T00:10:26.622Z,63.3
2016-08-08T00:10:30.330Z,63.1
2016-08-08T00:10:31.850Z,63.3
2016-08-08T00:10:34.825Z,63.1
2016-08-08T00:10:37.075Z,63.1
2016-08-08T00:10:40.780Z,63
2016-08-08T00:10:43.768Z,63.1
2016-08-08T00:10:46.013Z,63
2016-08-08T00:10:48.269Z,63.1
2016-08-08T00:10:51.244Z,63
2016-08-08T00:10:53.490Z,63.1
2016-08-08T00:10:57.194Z,63.2
2016-08-08T00:10:59.451Z,63.1
2016-08-08T00:11:01.705Z,63.3
2016-08-08T00:11:04.682Z,63.1
2016-08-08T00:11:07.658Z,63.3
2016-08-08T00:11:10.630Z,63.3
2016-08-08T00:11:13.682Z,63.3
2016-08-08T00:11:15.201Z,63.1
2016-08-08T00:11:17.444Z,63.1
2016-08-08T00:11:20.421Z,63.1
2016-08-08T00:11:22.678Z,63
2016-08-08T00:11:25.656Z,63.1
2016-08-08T00:11:28.626Z,63
2016-08-08T00:11:41.785Z,63.3
2016-08-08T00:11:45.491Z,63.1
2016-08-08T00:11:48.468Z,63.2
2016-08-08T00:11:52.174Z,63.3
2016-08-08T00:11:54.433Z,63.1
2016-08-08T00:11:58.129Z,63.1
2016-08-08T00:12:00.378Z,63.1
2016-08-08T00:12:03.355Z,63
2016-08-08T00:12:06.332Z,63.1
2016-08-08T00:12:10.033Z,63.2
2016-08-08T00:12:12.356Z,63.1
2016-08-08T00:12:15.330Z,63
2016-08-08T00:12:18.311Z,63
2016-08-08T00:12:19.830Z,63.1
2016-08-08T00:12:23.543Z,63.1
2016-08-08T00:12:25.062Z,63.1
2016-08-08T00:12:27.312Z,63.1
2016-08-08T00:12:30.289Z,63.1
2016-08-08T00:12:33.993Z,63.1
2016-08-08T00:12:36.971Z,63.1
2016-08-08T00:12:40.679Z,63.1
2016-08-08T00:12:44.386Z,63.1
2016-08-08T00:12:47.360Z,63.1
2016-08-08T00:12:49.621Z,63.1
2016-08-08T00:12:53.323Z,63.1
2016-08-08T00:12:54.839Z,63.1
2016-08-08T00:12:57.819Z,63.1
2016-08-08T00:13:00.063Z,63.1
2016-08-08T00:13:02.308Z,63
2016-08-08T00:13:05.285Z,63
2016-08-08T00:13:08.261Z,63.1
2016-08-08T00:13:10.504Z,63.1
2016-08-08T00:13:13.480Z,63.1
2016-08-08T00:13:16.454Z,63.1
2016-08-08T00:13:18.704Z,63.1
2016-08-08T00:13:21.678Z,63.1
2016-08-08T00:13:25.391Z,63.1
2016-08-08T00:13:29.095Z,63.1
2016-08-08T00:13:32.072Z,63
2016-08-08T00:13:35.780Z,63
2016-08-08T00:13:38.755Z,63
2016-08-08T00:13:41.734Z,63.1
2016-08-08T00:13:44.712Z,63.1
2016-08-08T00:13:47.686Z,63
2016-08-08T00:13:50.666Z,63.1
2016-08-08T00:13:52.906Z,63.2
2016-08-08T00:13:55.883Z,63.1
2016-08-08T00:13:57.403Z,63.1
2016-08-08T00:14:00.380Z,63.1
2016-08-08T00:14:04.088Z,63.1
2016-08-08T00:14:07.061Z,63.1
2016-08-08T00:14:10.037Z,63.1
2016-08-08T00:14:13.742Z,63.1
2016-08-08T00:14:17.454Z,63.1
2016-08-08T00:14:20.430Z,63.1
2016-08-08T00:14:23.405Z,63.1
2016-08-08T00:14:27.111Z,63.1
2016-08-08T00:14:29.365Z,63.2
2016-08-08T00:14:31.612Z,63.1
2016-08-08T00:14:34.586Z,63.1
2016-08-08T00:14:38.296Z,63.1
2016-08-08T00:14:41.274Z,63.1
2016-08-08T00:14:44.983Z,63.1
2016-08-08T00:14:47.960Z,63.1
2016-08-08T00:14:51.716Z,63.3
2016-08-08T00:14:54.691Z,63.1
2016-08-08T00:14:57.666Z,63.2
2016-08-08T00:15:00.644Z,63.1
2016-08-08T00:15:02.891Z,63.1
2016-08-08T00:15:05.140Z,63.1
2016-08-08T00:15:06.730Z,63.2
2016-08-08T00:15:09.707Z,63.2
2016-08-08T00:15:11.952Z,63
2016-08-08T00:15:14.276Z,63.1
2016-08-08T00:15:17.986Z,63.2
2016-08-08T00:15:21.693Z,63.1
2016-08-08T00:15:24.669Z,63.1
2016-08-08T00:15:26.925Z,63.1
2016-08-08T00:15:29.904Z,63
2016-08-08T00:15:33.607Z,63
2016-08-08T00:15:35.125Z,63.2
2016-08-08T00:15:38.101Z,63.2
2016-08-08T00:15:41.080Z,63
2016-08-08T00:15:44.054Z,63.1
2016-08-08T00:15:47.034Z,63.1
2016-08-08T00:15:50.734Z,63.2
2016-08-08T00:15:53.709Z,63
2016-08-08T00:15:56.682Z,63.2
2016-08-08T00:15:58.930Z,63
2016-08-08T00:16:00.617Z,63.1
2016-08-08T00:16:02.864Z,63.4
2016-08-08T00:16:06.572Z,63.3
2016-08-08T00:16:10.274Z,63.2
2016-08-08T00:16:13.977Z,63
2016-08-08T00:16:16.953Z,63.2
2016-08-08T00:16:20.661Z,63.3
2016-08-08T00:16:24.373Z,63.2
2016-08-08T00:16:27.344Z,63.2
2016-08-08T00:16:30.319Z,63.1
2016-08-08T00:16:33.297Z,63.1
2016-08-08T00:16:36.279Z,63.2
2016-08-08T00:16:37.797Z,63.2
2016-08-08T00:16:41.502Z,63
2016-08-08T00:16:45.208Z,63.4
2016-08-08T00:16:47.457Z,63.3
2016-08-08T00:16:50.432Z,63.1
2016-08-08T00:16:53.414Z,63.2
2016-08-08T00:16:56.388Z,63.1
2016-08-08T00:17:00.096Z,63.1
2016-08-08T00:17:03.144Z,63.3
2016-08-08T00:17:05.391Z,62.9
2016-08-08T00:17:08.370Z,63.1
2016-08-08T00:17:10.614Z,63.3
2016-08-08T00:17:12.131Z,63.2
2016-08-08T00:17:15.838Z,63.1
2016-08-08T00:17:18.811Z,63
2016-08-08T00:17:21.784Z,63.1
2016-08-08T00:17:23.301Z,63
2016-08-08T00:17:27.006Z,63.2
2016-08-08T00:17:29.254Z,63
2016-08-08T00:17:32.231Z,62.9
2016-08-08T00:17:34.477Z,62.9
2016-08-08T00:17:37.453Z,63.4
2016-08-08T00:17:40.428Z,63.1
2016-08-08T00:17:43.402Z,63.2
2016-08-08T00:17:46.378Z,63
2016-08-08T00:17:50.081Z,62.9
2016-08-08T00:17:53.053Z,62.9
2016-08-08T00:17:55.297Z,63.1
2016-08-08T00:17:57.544Z,62.9
2016-08-08T00:18:00.518Z,63
2016-08-08T00:18:03.494Z,63
2016-08-08T00:18:06.468Z,63.2
2016-08-08T00:18:08.718Z,63.2
2016-08-08T00:18:11.692Z,62.9
2016-08-08T00:18:14.665Z,63.1
2016-08-08T00:18:16.920Z,62.9
2016-08-08T00:18:20.619Z,63
2016-08-08T00:18:24.328Z,63.2
2016-08-08T00:18:27.315Z,62.9
2016-08-08T00:18:28.821Z,63.2
2016-08-08T00:18:31.796Z,63
2016-08-08T00:18:34.043Z,62.9
2016-08-08T00:18:36.292Z,62.9
2016-08-08T00:18:39.274Z,63.2
2016-08-08T00:18:42.978Z,63.2
2016-08-08T00:18:45.953Z,63.1
2016-08-08T00:18:49.659Z,63.1
2016-08-08T00:18:51.908Z,63
2016-08-08T00:18:54.884Z,63.1
2016-08-08T00:18:57.129Z,63.1
2016-08-08T00:19:00.111Z,62.9
2016-08-08T00:19:03.812Z,63.1
2016-08-08T00:19:06.058Z,63.1
2016-08-08T00:19:08.309Z,63.1
2016-08-08T00:19:10.556Z,63.1
2016-08-08T00:19:14.263Z,63.1
2016-08-08T00:19:17.239Z,63.2
2016-08-08T00:19:20.218Z,63.1
2016-08-08T00:19:23.191Z,63.1
2016-08-08T00:19:25.440Z,62.9
2016-08-08T00:19:29.144Z,63
2016-08-08T00:19:32.847Z,62.9
2016-08-08T00:19:36.554Z,63.2
2016-08-08T00:19:39.530Z,63.1
2016-08-08T00:19:50.700Z,63
2016-08-08T00:19:53.677Z,62.9
2016-08-08T00:19:56.656Z,63
2016-08-08T00:19:58.907Z,63.1
2016-08-08T00:20:02.613Z,63.1
2016-08-08T00:20:05.587Z,63.2
2016-08-08T00:20:08.561Z,62.9
2016-08-08T00:20:12.266Z,62.9
2016-08-08T00:20:14.512Z,63.2
2016-08-08T00:20:17.486Z,63
2016-08-08T00:20:20.462Z,63
2016-08-08T00:20:23.437Z,63.2
2016-08-08T00:20:26.413Z,63.2
2016-08-08T00:20:29.469Z,63
2016-08-08T00:20:32.444Z,62.9
2016-08-08T00:20:34.691Z,62.9
2016-08-08T00:20:38.394Z,63.1
2016-08-08T00:20:42.102Z,63.2
2016-08-08T00:20:45.077Z,63.1
2016-08-08T00:20:47.326Z,63.2
2016-08-08T00:20:50.300Z,62.9
2016-08-08T00:20:52.547Z,62.9
2016-08-08T00:20:56.250Z,63.1
2016-08-08T00:20:59.226Z,63.1
2016-08-08T00:21:02.198Z,63.2
2016-08-08T00:21:05.902Z,62.9
2016-08-08T00:21:08.148Z,63
2016-08-08T00:21:09.664Z,63.1
2016-08-08T00:21:12.638Z,63.4
2016-08-08T00:21:16.343Z,62.9
2016-08-08T00:21:18.586Z,62.9
2016-08-08T00:21:22.293Z,63.1
2016-08-08T00:21:25.267Z,63
2016-08-08T00:21:28.973Z,63.2
2016-08-08T00:21:32.683Z,63
2016-08-08T00:21:34.928Z,63.2
2016-08-08T00:21:38.632Z,63.1
2016-08-08T00:21:41.609Z,63.2
2016-08-08T00:21:44.586Z,63
2016-08-08T00:21:45.384Z,63.2
2016-08-08T00:21:47.630Z,63.2
2016-08-08T00:21:51.336Z,63.1
2016-08-08T00:21:54.311Z,63.1
2016-08-08T00:21:57.286Z,62.9
2016-08-08T00:22:00.265Z,63.2
2016-08-08T00:22:02.519Z,63
2016-08-08T00:22:06.235Z,62.9
2016-08-08T00:22:08.478Z,62.9
2016-08-08T00:22:11.450Z,63.2
2016-08-08T00:22:12.969Z,63
2016-08-08T00:22:16.673Z,63
2016-08-08T00:22:19.653Z,63.1
2016-08-08T00:22:22.628Z,63.2
2016-08-08T00:22:25.604Z,63
2016-08-08T00:22:29.310Z,63
2016-08-08T00:22:32.292Z,63
2016-08-08T00:22:35.268Z,63.2
2016-08-08T00:22:36.787Z,63.2
2016-08-08T00:22:39.763Z,63.2
2016-08-08T00:22:42.739Z,63
2016-08-08T00:22:44.989Z,63.1
2016-08-08T00:22:48.700Z,63.1
2016-08-08T00:22:52.406Z,63.2
2016-08-08T00:22:55.384Z,63.1
2016-08-08T00:22:58.359Z,63.3
2016-08-08T00:23:00.606Z,63.3
2016-08-08T00:23:03.584Z,63.2
2016-08-08T00:23:07.286Z,63.2
2016-08-08T00:23:08.801Z,63.1
2016-08-08T00:23:11.781Z,63.3
2016-08-08T00:23:14.755Z,63.2
2016-08-08T00:23:18.459Z,63.2
2016-08-08T00:23:22.165Z,63.1
2016-08-08T00:23:25.868Z,63.1
2016-08-08T00:23:29.572Z,63.2
2016-08-08T00:23:31.821Z,63.2
2016-08-08T00:23:34.793Z,63.4
2016-08-08T00:23:37.769Z,63.2
2016-08-08T00:23:41.473Z,63.2
2016-08-08T00:23:43.721Z,63.1
2016-08-08T00:23:46.051Z,63.2
2016-08-08T00:23:49.025Z,63.2
2016-08-08T00:23:51.271Z,63.2
2016-08-08T00:23:54.974Z,63.3
2016-08-08T00:23:56.491Z,63.3
2016-08-08T00:24:00.198Z,63.2
2016-08-08T00:24:03.899Z,63.2
2016-08-08T00:24:06.873Z,63.3
2016-08-08T00:24:10.576Z,63.2
2016-08-08T00:24:13.550Z,63.2
2016-08-08T00:24:17.256Z,63.3
2016-08-08T00:24:20.961Z,63.2
2016-08-08T00:24:23.936Z,63.3
2016-08-08T00:24:26.913Z,63.3
2016-08-08T00:24:29.888Z,63.2
2016-08-08T00:24:33.595Z,63.3
2016-08-08T00:24:36.573Z,63.2
2016-08-08T00:24:39.549Z,63.3
2016-08-08T00:24:43.253Z,63.3
2016-08-08T00:24:46.228Z,63.2
2016-08-08T00:24:49.934Z,63.2
2016-08-08T00:24:52.234Z,63.3
2016-08-08T00:24:55.940Z,63.4
2016-08-08T00:24:58.985Z,63.2
2016-08-08T00:25:02.688Z,63.2
2016-08-08T00:25:05.667Z,63.2
2016-08-08T00:25:09.367Z,63.3
2016-08-08T00:25:13.072Z,63.3
2016-08-08T00:25:16.779Z,63.2
2016-08-08T00:25:19.031Z,63.3
2016-08-08T00:25:21.276Z,63.2
2016-08-08T00:25:24.253Z,63.3
2016-08-08T00:25:26.496Z,63.3
2016-08-08T00:25:29.470Z,63.2
2016-08-08T00:25:33.177Z,63.3
2016-08-08T00:25:36.159Z,63.3
2016-08-08T00:25:38.404Z,63.2
2016-08-08T00:25:42.111Z,63.1
2016-08-08T00:25:44.356Z,63.2
2016-08-08T00:25:48.060Z,63.3
2016-08-08T00:25:51.035Z,63.2
2016-08-08T00:25:54.010Z,63.2
2016-08-08T00:25:56.985Z,63.3
2016-08-08T00:25:59.230Z,63.3
2016-08-08T00:26:02.205Z,63.2
2016-08-08T00:26:05.911Z,63.2
2016-08-08T00:26:09.619Z,63.2
2016-08-08T00:26:12.593Z,63.3
2016-08-08T00:26:15.576Z,63.3
2016-08-08T00:26:19.279Z,63
2016-08-08T00:26:22.983Z,63.2
2016-08-08T00:26:25.230Z,63.3
2016-08-08T00:26:28.205Z,63.2
2016-08-08T00:26:31.182Z,63.2
2016-08-08T00:26:34.158Z,63.2
2016-08-08T00:26:46.376Z,63.2
2016-08-08T00:26:50.138Z,63
2016-08-08T00:26:53.835Z,63
2016-08-08T00:26:55.353Z,63.1
2016-08-08T00:26:59.057Z,63.2
2016-08-08T00:27:02.032Z,63.2
2016-08-08T00:27:05.005Z,63.3
2016-08-08T00:27:08.709Z,63.3
2016-08-08T00:27:11.684Z,63.2
2016-08-08T00:27:14.660Z,63.2
2016-08-08T00:27:18.362Z,63.1
2016-08-08T00:27:20.612Z,63.3
2016-08-08T00:27:23.584Z,63.2
2016-08-08T00:27:26.637Z,63.3
2016-08-08T00:27:29.613Z,63.1
2016-08-08T00:27:33.317Z,63.3
2016-08-08T00:27:35.561Z,63.1
2016-08-08T00:27:39.268Z,63.1
2016-08-08T00:27:41.514Z,63.2
2016-08-08T00:27:45.219Z,63.3
2016-08-08T00:27:48.193Z,63.3
2016-08-08T00:27:51.896Z,63.3
2016-08-08T00:27:54.140Z,63.3
2016-08-08T00:27:57.115Z,63.3
2016-08-08T00:28:00.090Z,63.2
2016-08-08T00:28:01.607Z,63.3
2016-08-08T00:28:03.853Z,63.3
2016-08-08T00:28:06.099Z,63.3
2016-08-08T00:28:09.804Z,63.3
2016-08-08T00:28:12.779Z,63.3
2016-08-08T00:28:15.758Z,63.2
2016-08-08T00:28:18.003Z,63.3
2016-08-08T00:28:21.708Z,63.3
2016-08-08T00:28:23.953Z,63.3
2016-08-08T00:28:26.930Z,63.2
2016-08-08T00:28:29.900Z,63.2
2016-08-08T00:28:33.605Z,63.2
2016-08-08T00:28:36.581Z,63.4
2016-08-08T00:28:40.282Z,63.3
2016-08-08T00:28:43.991Z,63.4
2016-08-08T00:28:46.233Z,63.2
2016-08-08T00:28:49.207Z,63.2
2016-08-08T00:28:51.523Z,63.3
2016-08-08T00:28:53.770Z,63.2
2016-08-08T00:28:56.749Z,63.2
2016-08-08T00:28:58.995Z,63.2
2016-08-08T00:29:02.701Z,63.4
2016-08-08T00:29:06.406Z,63.3
2016-08-08T00:29:08.649Z,63.2
2016-08-08T00:29:11.626Z,63.2
2016-08-08T00:29:15.330Z,63.2
2016-08-08T00:29:19.038Z,63.3
2016-08-08T00:29:22.027Z,63.3
2016-08-08T00:29:25.005Z,63.1
2016-08-08T00:29:28.709Z,63.2
2016-08-08T00:29:31.685Z,63.3
2016-08-08T00:29:34.659Z,63
2016-08-08T00:29:37.636Z,63.1
2016-08-08T00:29:40.609Z,62.8
2016-08-08T00:29:42.852Z,63.5
2016-08-08T00:29:46.556Z,63
2016-08-08T00:29:49.533Z,62.8
2016-08-08T00:29:52.509Z,62.8
2016-08-08T00:29:55.490Z,63.4
2016-08-08T00:29:58.462Z,63
2016-08-08T00:30:02.168Z,63.4
2016-08-08T00:30:05.146Z,63.1
2016-08-08T00:30:08.849Z,63.4
2016-08-08T00:30:12.551Z,62.8
2016-08-08T00:30:16.255Z,62.8
2016-08-08T00:30:18.503Z,63.4
2016-08-08T00:30:21.475Z,62.8
2016-08-08T00:30:23.070Z,63.4
2016-08-08T00:30:25.319Z,63.2
2016-08-08T00:30:27.564Z,63.4
2016-08-08T00:30:30.538Z,63.3
2016-08-08T00:30:32.785Z,63.4
2016-08-08T00:30:35.033Z,63.4
2016-08-08T00:30:38.009Z,63.5
2016-08-08T00:30:40.251Z,63.2
2016-08-08T00:30:43.226Z,63.2
2016-08-08T00:30:46.209Z,63.3
2016-08-08T00:30:49.183Z,63.3
2016-08-08T00:30:50.801Z,63.3
2016-08-08T00:30:53.051Z,63.3
2016-08-08T00:30:56.027Z,63.3
2016-08-08T00:30:59.005Z,63.4
2016-08-08T00:31:01.980Z,63.3
2016-08-08T00:31:04.221Z,63.7
2016-08-08T00:31:06.468Z,63.3
2016-08-08T00:31:07.987Z,63.3
2016-08-08T00:31:10.234Z,63.4
2016-08-08T00:31:13.941Z,63.2
2016-08-08T00:31:16.923Z,63.3
2016-08-08T00:31:19.905Z,63.3
2016-08-08T00:31:22.884Z,63.8
2016-08-08T00:31:25.129Z,63.2
2016-08-08T00:31:27.377Z,63.5
2016-08-08T00:31:30.351Z,63.5
2016-08-08T00:31:33.329Z,63.7
2016-08-08T00:31:37.031Z,63.7
2016-08-08T00:31:40.730Z,63.4
2016-08-08T00:31:42.979Z,63.5
2016-08-08T00:31:46.684Z,63.4
2016-08-08T00:31:50.391Z,63.5
2016-08-08T00:31:53.374Z,63.5
2016-08-08T00:31:56.351Z,63.5
2016-08-08T00:32:00.052Z,63.5
2016-08-08T00:32:03.753Z,63.5
2016-08-08T00:32:07.458Z,63.8
2016-08-08T00:32:11.165Z,63.8
2016-08-08T00:32:14.138Z,63.6
2016-08-08T00:32:17.120Z,63.8
2016-08-08T00:32:19.371Z,63.8
2016-08-08T00:32:21.630Z,63.7
2016-08-08T00:32:24.603Z,63.8
2016-08-08T00:32:26.120Z,63.2
2016-08-08T00:32:29.093Z,63.9
2016-08-08T00:32:32.795Z,63.4
2016-08-08T00:32:35.770Z,63.5
2016-08-08T00:32:39.478Z,63.5
2016-08-08T00:32:43.185Z,63.5
2016-08-08T00:32:46.156Z,63.5
2016-08-08T00:32:49.136Z,63.7
2016-08-08T00:32:52.109Z,63.7
2016-08-08T00:32:53.626Z,63.6
2016-08-08T00:32:55.876Z,63.6
2016-08-08T00:32:58.867Z,63.5
2016-08-08T00:33:02.571Z,63.5
2016-08-08T00:33:06.278Z,63.5
2016-08-08T00:33:09.265Z,63.6
2016-08-08T00:33:11.515Z,63.5
2016-08-08T00:33:13.756Z,63.9
2016-08-08T00:33:17.462Z,63.6
2016-08-08T00:33:19.717Z,63.6
2016-08-08T00:33:23.422Z,63.5
2016-08-08T00:33:27.129Z,63.6
2016-08-08T00:33:30.101Z,63.6
2016-08-08T00:33:33.806Z,63.5
2016-08-08T00:33:37.513Z,63.6
2016-08-08T00:33:39.762Z,63.6
2016-08-08T00:33:41.279Z,63.6
2016-08-08T00:33:44.986Z,63.6
2016-08-08T00:33:47.959Z,63.6
2016-08-08T00:33:50.936Z,63.6
2016-08-08T00:33:54.637Z,63.6
2016-08-08T00:33:58.340Z,63.6
2016-08-08T00:34:01.316Z,63.6
2016-08-08T00:34:04.298Z,63.7
2016-08-08T00:34:05.082Z,63.6
2016-08-08T00:34:06.601Z,63.4
2016-08-08T00:34:10.311Z,63.6
2016-08-08T00:34:13.289Z,63.6
2016-08-08T00:34:14.803Z,63.7
2016-08-08T00:34:17.779Z,63.5
2016-08-08T00:34:20.029Z,63.7
2016-08-08T00:34:22.273Z,63.6
2016-08-08T00:34:24.519Z,63.6
2016-08-08T00:34:26.769Z,63.6
2016-08-08T00:34:30.471Z,63.6
2016-08-08T00:34:33.447Z,63.7
2016-08-08T00:34:36.429Z,63.7
2016-08-08T00:34:40.133Z,63.7
2016-08-08T00:34:43.108Z,63.7
2016-08-08T00:34:46.088Z,63.7
2016-08-08T00:34:49.793Z,63.7
2016-08-08T00:34:52.769Z,63.7
2016-08-08T00:34:55.751Z,63.7
2016-08-08T00:34:59.450Z,63.6
2016-08-08T00:35:02.430Z,63.7
2016-08-08T00:35:06.134Z,63.4
2016-08-08T00:35:09.114Z,63.8
2016-08-08T00:35:12.817Z,63.9
2016-08-08T00:35:15.792Z,63.7
2016-08-08T00:35:18.048Z,63.7
2016-08-08T00:35:21.024Z,63.7
2016-08-08T00:35:24.730Z,63.7
2016-08-08T00:35:26.974Z,63.8
2016-08-08T00:35:29.947Z,63.8
2016-08-08T00:35:33.652Z,63.8
2016-08-08T00:35:36.629Z,63.7
2016-08-08T00:35:40.334Z,63.7
2016-08-08T00:35:44.032Z,63.9
2016-08-08T00:35:45.550Z,63.8
2016-08-08T00:35:48.523Z,63.8
2016-08-08T00:35:50.771Z,63.9
2016-08-08T00:35:53.015Z,63.7
2016-08-08T00:35:55.998Z,63.7
2016-08-08T00:35:59.703Z,63.9
2016-08-08T00:36:01.949Z,63.7
2016-08-08T00:36:05.658Z,63.7
2016-08-08T00:36:07.904Z,63.7
2016-08-08T00:36:10.148Z,63.7
2016-08-08T00:36:13.135Z,63.7
2016-08-08T00:36:15.383Z,63.7
2016-08-08T00:36:19.088Z,63.7
2016-08-08T00:36:21.335Z,63.8
2016-08-08T00:36:25.042Z,63.7
2016-08-08T00:36:28.748Z,63.8
2016-08-08T00:36:31.728Z,63.9
2016-08-08T00:36:35.431Z,63.6
2016-08-08T00:36:38.408Z,63.8
2016-08-08T00:36:41.383Z,63.8
2016-08-08T00:36:44.358Z,63.9
2016-08-08T00:36:45.875Z,63.8
2016-08-08T00:36:49.577Z,63.7
2016-08-08T00:36:53.286Z,63.8
2016-08-08T00:36:56.990Z,63.8
2016-08-08T00:36:59.964Z,63.8
2016-08-08T00:37:02.211Z,63.6
2016-08-08T00:37:05.189Z,63.6
2016-08-08T00:37:07.438Z,63.9
2016-08-08T00:37:10.415Z,63.8
2016-08-08T00:37:14.122Z,63.9
2016-08-08T00:37:17.829Z,63.8
2016-08-08T00:37:20.806Z,63.9
2016-08-08T00:37:23.782Z,63.8
2016-08-08T00:37:27.486Z,63.9
2016-08-08T00:37:30.463Z,63.8
2016-08-08T00:37:34.169Z,63.8
2016-08-08T00:37:37.153Z,63.8
2016-08-08T00:37:39.403Z,63.9
2016-08-08T00:37:42.377Z,63.7
2016-08-08T00:37:43.898Z,63.7
2016-08-08T00:37:46.156Z,63.7
2016-08-08T00:37:49.133Z,63.9
2016-08-08T00:37:52.841Z,63.7
2016-08-08T00:37:56.545Z,63.8
2016-08-08T00:37:59.522Z,63.6
2016-08-08T00:38:01.767Z,63.6
2016-08-08T00:38:04.023Z,63.9
2016-08-08T00:38:06.266Z,63.8
2016-08-08T00:38:09.240Z,63.7
2016-08-08T00:38:12.946Z,63.6
2016-08-08T00:38:16.650Z,63.7
2016-08-08T00:38:19.626Z,63.6
2016-08-08T00:38:21.879Z,63.8
2016-08-08T00:38:25.585Z,63.6
2016-08-08T00:38:29.291Z,63.8
2016-08-08T00:38:32.265Z,63.9
2016-08-08T00:38:35.238Z,63.8
2016-08-08T00:38:38.213Z,63.9
2016-08-08T00:38:41.918Z,63.8
2016-08-08T00:38:44.892Z,63.8
2016-08-08T00:38:47.143Z,63.7
2016-08-08T00:38:50.119Z,63.7
2016-08-08T00:38:53.827Z,63.6
2016-08-08T00:38:56.804Z,63.8
2016-08-08T00:38:59.054Z,63.9
2016-08-08T00:39:01.301Z,63.7
2016-08-08T00:39:05.005Z,63.9
2016-08-08T00:39:08.709Z,63.8
2016-08-08T00:39:11.683Z,63.7
2016-08-08T00:39:13.284Z,63.9
2016-08-08T00:39:16.993Z,63.8
2016-08-08T00:39:19.967Z,63.8
2016-08-08T00:39:22.946Z,63.7
2016-08-08T00:39:25.920Z,63.8
2016-08-08T00:39:28.896Z,63.7
2016-08-08T00:39:31.143Z,63.8
2016-08-08T00:39:34.122Z,63.7
2016-08-08T00:39:37.832Z,63.7
2016-08-08T00:39:41.539Z,63.8
2016-08-08T00:39:44.514Z,63.7
2016-08-08T00:39:46.759Z,63.7
2016-08-08T00:39:50.466Z,63.8
2016-08-08T00:39:51.991Z,63.9
2016-08-08T00:39:54.970Z,63.7
2016-08-08T00:39:58.672Z,63.8
2016-08-08T00:40:02.382Z,63.8
2016-08-08T00:40:05.359Z,63.7
2016-08-08T00:40:09.064Z,63.8
2016-08-08T00:40:12.771Z,63.9
2016-08-08T00:40:15.016Z,63.6
2016-08-08T00:40:18.721Z,63.6